createdAt,value
2022-10-10T00:00:49.696Z,20.88
2022-10-10T00:03:17.565Z,15.77
2022-10-10T00:05:44.893Z,17.75
2022-10-10T00:08:12.163Z,22.50
2022-10-10T00:10:39.277Z,17.45
2022-10-10T00:13:06.877Z,16.38
2022-10-10T00:15:33.792Z,16.63
2022-10-10T00:18:00.808Z,16.33
2022-10-10T00:20:27.642Z,19.45
2022-10-10T00:22:54.514Z,17.77
2022-10-10T00:25:21.639Z,16.63
2022-10-10T00:27:48.493Z,14.18
2022-10-10T00:30:15.297Z,18.58
2022-10-10T00:32:42.246Z,15.95
2022-10-10T00:35:09.405Z,19.17
2022-10-10T00:37:36.229Z,16.13
2022-10-10T00:40:05.235Z,18.10
2022-10-10T00:42:32.125Z,18.75
2022-10-10T00:45:20.883Z,18.35
2022-10-10T00:47:49.416Z,16.83
2022-10-10T00:50:17.518Z,17.40
2022-10-10T00:52:44.379Z,24.90
2022-10-10T00:55:12.682Z,15.85
2022-10-10T00:57:39.847Z,18.75
2022-10-10T01:00:07.444Z,15.00
2022-10-10T01:02:34.351Z,17.20
2022-10-10T01:05:01.113Z,19.75
2022-10-10T01:07:30.850Z,17.85
2022-10-10T01:10:03.852Z,19.17
2022-10-10T01:12:49.110Z,20.65
2022-10-10T01:15:33.716Z,18.33
2022-10-10T01:18:25.414Z,18.92
2022-10-10T01:21:05.300Z,17.75
2022-10-10T01:23:53.777Z,17.27
2022-10-10T01:26:38.619Z,19.05
2022-10-10T01:29:30.302Z,16.83
2022-10-10T01:32:09.854Z,20.60
2022-10-10T01:35:00.525Z,26.00
2022-10-10T01:37:34.030Z,18.38
2022-10-10T01:40:08.798Z,18.38
2022-10-10T01:42:53.390Z,19.20
2022-10-10T01:45:21.022Z,23.67
2022-10-10T01:47:49.376Z,19.80
2022-10-10T01:50:21.578Z,23.50
2022-10-10T01:53:22.477Z,21.63
2022-10-10T01:55:55.833Z,18.50
2022-10-10T01:58:22.641Z,21.80
2022-10-10T02:01:05.768Z,19.15
2022-10-10T02:03:38.244Z,19.80
2022-10-10T02:06:17.452Z,16.45
2022-10-10T02:08:51.072Z,18.63
2022-10-10T02:11:18.024Z,19.83
2022-10-10T02:13:49.285Z,20.35
2022-10-10T02:16:24.467Z,20.35
2022-10-10T02:18:53.482Z,19.10
2022-10-10T02:21:21.532Z,20.35
2022-10-10T02:23:52.589Z,22.88
2022-10-10T02:26:21.465Z,18.77
2022-10-10T02:28:59.916Z,23.40
2022-10-10T02:31:52.099Z,18.00
2022-10-10T02:34:27.130Z,17.60
2022-10-10T02:36:58.588Z,17.92
2022-10-10T02:39:30.174Z,15.02
2022-10-10T02:41:56.979Z,21.05
2022-10-10T02:44:25.249Z,18.70
2022-10-10T02:46:52.348Z,22.08
2022-10-10T02:49:30.767Z,17.42
2022-10-10T02:51:57.795Z,15.38
2022-10-10T02:54:24.917Z,20.10
2022-10-10T02:56:52.098Z,16.92
2022-10-10T02:59:19.378Z,20.65
2022-10-10T03:01:46.282Z,18.48
2022-10-10T03:04:13.698Z,19.38
2022-10-10T03:06:40.599Z,21.60
2022-10-10T03:09:07.395Z,17.80
2022-10-10T03:11:34.358Z,20.52
2022-10-10T03:14:01.230Z,18.80
2022-10-10T03:16:28.020Z,18.90
2022-10-10T03:18:54.775Z,16.80
2022-10-10T03:21:21.679Z,16.80
2022-10-10T03:23:48.422Z,19.77
2022-10-10T03:26:15.452Z,22.38
2022-10-10T03:28:42.366Z,22.20
2022-10-10T03:31:09.307Z,19.63
2022-10-10T03:33:36.263Z,18.45
2022-10-10T03:36:03.412Z,20.20
2022-10-10T03:38:30.607Z,20.92
2022-10-10T03:40:57.411Z,19.13
2022-10-10T03:43:24.291Z,15.57
2022-10-10T03:45:51.165Z,17.60
2022-10-10T03:48:17.977Z,17.05
2022-10-10T03:50:44.944Z,16.08
2022-10-10T03:53:11.803Z,20.77
2022-10-10T03:55:42.552Z,19.50
2022-10-10T03:58:10.517Z,19.98
2022-10-10T04:00:37.646Z,20.27
2022-10-10T04:03:08.102Z,26.00
2022-10-10T04:05:39.466Z,22.63
2022-10-10T04:08:06.833Z,19.48
2022-10-10T04:10:33.771Z,24.23
2022-10-10T04:13:01.869Z,24.95
2022-10-10T04:15:28.650Z,18.90
2022-10-10T04:17:55.448Z,21.42
2022-10-10T04:20:22.610Z,25.98
2022-10-10T04:22:49.736Z,20.48
2022-10-10T04:25:16.821Z,19.92
2022-10-10T04:27:44.135Z,17.65
2022-10-10T04:30:11.975Z,16.30
2022-10-10T04:32:38.923Z,21.77
2022-10-10T04:35:06.142Z,23.63
2022-10-10T04:37:34.131Z,22.98
2022-10-10T04:40:00.999Z,27.38
2022-10-10T04:42:28.022Z,23.60
2022-10-10T04:44:54.957Z,18.23
2022-10-10T04:47:22.119Z,16.58
2022-10-10T04:49:48.947Z,24.33
2022-10-10T04:52:15.757Z,18.98
2022-10-10T04:54:43.131Z,24.15
2022-10-10T04:57:10.138Z,21.55
2022-10-10T04:59:36.934Z,27.38
2022-10-10T05:02:04.129Z,19.13
2022-10-10T05:04:31.031Z,20.50
2022-10-10T05:06:57.859Z,24.48
2022-10-10T05:09:24.730Z,25.15
2022-10-10T05:11:51.887Z,18.15
2022-10-10T05:14:18.710Z,22.92
2022-10-10T05:16:45.674Z,25.80
2022-10-10T05:19:12.678Z,21.42
2022-10-10T05:21:39.500Z,19.88
2022-10-10T05:24:06.351Z,22.55
2022-10-10T05:26:33.367Z,20.00
2022-10-10T05:29:01.628Z,21.35
2022-10-10T05:31:28.971Z,18.85
2022-10-10T05:33:55.834Z,18.65
2022-10-10T05:36:22.684Z,19.38
2022-10-10T05:38:49.506Z,25.75
2022-10-10T05:41:16.589Z,21.35
2022-10-10T05:43:43.360Z,23.05
2022-10-10T05:46:10.252Z,24.42
2022-10-10T05:48:37.326Z,29.55
2022-10-10T05:51:04.347Z,27.35
2022-10-10T05:53:31.184Z,23.83
2022-10-10T05:55:58.213Z,27.98
2022-10-10T05:58:26.484Z,23.23
2022-10-10T06:00:53.725Z,24.50
2022-10-10T06:03:20.706Z,20.88
2022-10-10T06:05:51.403Z,23.65
2022-10-10T06:08:18.251Z,27.20
2022-10-10T06:10:46.269Z,20.02
2022-10-10T06:13:15.322Z,19.95
2022-10-10T06:15:42.579Z,27.00
2022-10-10T06:18:10.558Z,26.08
2022-10-10T06:20:39.018Z,22.35
2022-10-10T06:23:06.791Z,26.65
2022-10-10T06:25:42.161Z,26.27
2022-10-10T06:28:10.816Z,19.45
2022-10-10T06:30:45.298Z,21.65
2022-10-10T06:33:13.136Z,19.25
2022-10-10T06:35:44.287Z,31.33
2022-10-10T06:38:12.410Z,21.58
2022-10-10T06:40:39.845Z,24.95
2022-10-10T06:43:14.111Z,22.45
2022-10-10T06:45:43.797Z,24.25
2022-10-10T06:48:14.127Z,20.30
2022-10-10T06:50:41.005Z,26.73
2022-10-10T06:53:07.965Z,26.70
2022-10-10T06:55:34.829Z,28.48
2022-10-10T06:58:01.678Z,23.45
2022-10-10T07:00:28.527Z,20.75
2022-10-10T07:02:55.310Z,17.50
2022-10-10T07:05:22.142Z,19.70
2022-10-10T07:07:51.607Z,18.10
2022-10-10T07:10:18.538Z,18.95
2022-10-10T07:12:45.369Z,18.10
2022-10-10T07:15:13.062Z,23.88
2022-10-10T07:17:40.050Z,20.40
2022-10-10T07:20:07.851Z,18.95
2022-10-10T07:22:34.898Z,19.20
2022-10-10T07:25:01.723Z,23.80
2022-10-10T07:27:28.529Z,20.90
2022-10-10T07:29:55.423Z,19.38
2022-10-10T07:32:22.666Z,20.35
2022-10-10T07:34:50.902Z,23.45
2022-10-10T07:37:17.878Z,16.90
2022-10-10T07:39:44.748Z,18.42
2022-10-10T07:42:11.617Z,15.70
2022-10-10T07:44:38.407Z,19.27
2022-10-10T07:47:05.420Z,20.67
2022-10-10T07:49:32.245Z,21.13
2022-10-10T07:52:01.456Z,15.75
2022-10-10T07:54:29.902Z,17.67
2022-10-10T07:56:57.743Z,20.42
2022-10-10T07:59:25.644Z,15.45
2022-10-10T08:01:52.903Z,20.77
2022-10-10T08:04:20.430Z,17.55
2022-10-10T08:06:48.242Z,14.40
2022-10-10T08:09:15.108Z,18.40
2022-10-10T08:11:41.917Z,17.15
2022-10-10T08:14:09.245Z,13.68
2022-10-10T08:16:36.254Z,16.60
2022-10-10T08:19:04.535Z,15.43
2022-10-10T08:21:31.357Z,12.90
2022-10-10T08:23:58.380Z,14.93
2022-10-10T08:26:25.373Z,17.52
2022-10-10T08:28:52.281Z,10.13
2022-10-10T08:31:21.417Z,13.27
2022-10-10T08:33:49.735Z,14.27
2022-10-10T08:36:24.808Z,16.67
2022-10-10T08:38:57.078Z,14.80
2022-10-10T08:41:33.098Z,15.85
2022-10-10T08:44:16.116Z,14.48
2022-10-10T08:46:47.100Z,21.70
2022-10-10T08:49:25.241Z,20.05
2022-10-10T08:51:59.110Z,20.55
2022-10-10T08:54:28.616Z,12.25
2022-10-10T08:56:59.797Z,15.20
2022-10-10T08:59:44.984Z,24.95
2022-10-10T09:02:59.059Z,13.30
2022-10-10T09:05:45.380Z,14.85
2022-10-10T09:08:39.334Z,18.17
2022-10-10T09:11:32.294Z,17.42
2022-10-10T09:14:46.034Z,14.85
2022-10-10T09:17:19.783Z,13.27
2022-10-10T09:20:15.697Z,15.57
2022-10-10T09:23:02.754Z,12.68
2022-10-10T09:25:46.858Z,14.50
2022-10-10T09:28:29.750Z,10.55
2022-10-10T09:31:00.403Z,14.90
2022-10-10T09:34:00.682Z,15.52
2022-10-10T09:36:35.193Z,13.68
2022-10-10T09:39:30.026Z,13.50
2022-10-10T09:42:01.847Z,12.07
2022-10-10T09:44:29.426Z,14.98
2022-10-10T09:46:57.868Z,16.60
2022-10-10T09:49:24.789Z,15.43
2022-10-10T09:51:51.813Z,10.30
2022-10-10T09:54:20.206Z,11.63
2022-10-10T09:56:55.971Z,10.73
2022-10-10T09:59:49.161Z,11.30
2022-10-10T10:02:21.623Z,12.73
2022-10-10T10:04:49.933Z,15.27
2022-10-10T10:07:32.561Z,11.75
2022-10-10T10:10:11.738Z,17.00
2022-10-10T10:12:41.176Z,13.45
2022-10-10T10:15:25.645Z,13.80
2022-10-10T10:18:10.849Z,15.25
2022-10-10T10:20:40.788Z,13.15
2022-10-10T10:23:48.834Z,15.38
2022-10-10T10:26:38.098Z,11.15
2022-10-10T10:29:05.081Z,12.48
2022-10-10T10:32:12.927Z,13.18
2022-10-10T10:34:39.758Z,12.73
2022-10-10T10:37:34.691Z,14.90
2022-10-10T10:40:25.749Z,15.88
2022-10-10T10:43:05.767Z,16.52
2022-10-10T10:45:43.797Z,18.15
2022-10-10T10:48:47.423Z,21.20
2022-10-10T10:51:14.218Z,14.07
2022-10-10T10:53:46.632Z,18.65
2022-10-10T11:00:33.001Z,16.17
2022-10-10T11:03:05.860Z,15.82
2022-10-10T11:06:01.585Z,21.60
2022-10-10T11:08:38.264Z,19.27
2022-10-10T11:11:18.469Z,15.65
2022-10-10T11:14:01.439Z,12.55
2022-10-10T11:16:48.854Z,17.98
2022-10-10T11:19:24.070Z,12.70
2022-10-10T11:21:57.933Z,8.07
2022-10-10T11:24:43.519Z,11.23
2022-10-10T11:27:30.150Z,8.10
2022-10-10T11:30:08.825Z,7.70
2022-10-10T11:33:10.910Z,8.55
2022-10-10T11:35:46.123Z,10.25
2022-10-10T11:38:33.339Z,5.95
2022-10-10T11:41:03.777Z,13.60
2022-10-10T11:44:08.090Z,7.82
2022-10-10T11:46:44.265Z,8.88
2022-10-10T11:49:13.883Z,4.47
2022-10-10T11:52:09.543Z,7.22
2022-10-10T11:54:57.300Z,4.60
2022-10-10T11:57:33.989Z,8.45
2022-10-10T12:00:06.150Z,5.72
2022-10-10T12:02:36.886Z,4.63
2022-10-10T12:05:08.033Z,8.90
2022-10-10T12:07:51.345Z,6.00
2022-10-10T12:10:25.699Z,9.35
2022-10-10T12:12:58.180Z,4.97
2022-10-10T12:15:34.339Z,5.55
2022-10-10T12:18:05.229Z,3.03
2022-10-10T12:20:35.310Z,5.22
2022-10-10T12:23:14.478Z,2.88
2022-10-10T12:25:45.517Z,3.83
2022-10-10T12:28:15.206Z,4.07
2022-10-10T12:30:58.422Z,6.43
2022-10-10T12:33:28.770Z,3.90
2022-10-10T12:35:55.603Z,6.07
2022-10-10T12:38:27.807Z,2.92
2022-10-10T12:40:57.732Z,8.10
2022-10-10T12:44:03.112Z,4.97
2022-10-10T12:46:32.026Z,4.03
2022-10-10T12:48:58.742Z,5.78
2022-10-10T12:51:26.437Z,5.60
2022-10-10T12:53:56.741Z,6.50
2022-10-10T12:56:39.549Z,7.05
2022-10-10T12:59:16.516Z,8.15
2022-10-10T13:01:47.302Z,8.52
2022-10-10T13:04:17.473Z,6.15
2022-10-10T13:06:46.447Z,7.60
2022-10-10T13:09:23.470Z,8.48
2022-10-10T13:12:22.361Z,12.40
2022-10-10T13:14:49.314Z,13.85
2022-10-10T13:17:29.714Z,9.43
2022-10-10T13:19:59.099Z,15.32
2022-10-10T13:22:27.923Z,9.20
2022-10-10T13:24:55.135Z,7.53
2022-10-10T13:27:25.732Z,9.35
2022-10-10T13:29:55.037Z,10.52
2022-10-10T13:32:26.022Z,8.18
2022-10-10T13:34:59.578Z,8.55
2022-10-10T13:37:27.505Z,10.25
2022-10-10T13:39:54.671Z,8.80
2022-10-10T13:42:35.024Z,6.30
2022-10-10T13:45:26.546Z,9.07
2022-10-10T13:48:12.271Z,13.75
2022-10-10T13:50:47.063Z,13.85
2022-10-10T13:53:31.984Z,9.50
2022-10-10T13:56:04.896Z,13.73
2022-10-10T13:58:40.246Z,14.25
2022-10-10T14:01:18.903Z,14.25
2022-10-10T14:03:47.918Z,17.23
2022-10-10T14:06:23.690Z,17.20
2022-10-10T14:08:52.797Z,13.75
2022-10-10T14:11:22.747Z,15.15
2022-10-10T14:14:04.227Z,14.95
2022-10-10T14:16:31.044Z,13.75
2022-10-10T14:18:57.805Z,20.10
2022-10-10T14:21:24.766Z,12.90
2022-10-10T14:23:52.317Z,13.15
2022-10-10T14:26:20.727Z,13.88
2022-10-10T14:28:47.626Z,13.85
2022-10-10T14:31:14.947Z,13.98
2022-10-10T14:33:41.711Z,19.63
2022-10-10T14:36:11.335Z,12.05
2022-10-10T14:38:38.167Z,18.10
2022-10-10T14:41:05.884Z,12.98
2022-10-10T14:43:33.162Z,13.65
2022-10-10T14:46:00.097Z,13.13
2022-10-10T14:48:27.047Z,13.30
2022-10-10T14:50:53.846Z,16.38
2022-10-10T14:53:20.745Z,13.45
2022-10-10T14:55:49.036Z,12.43
2022-10-10T14:58:20.966Z,18.98
2022-10-10T15:00:48.574Z,16.63
2022-10-10T15:03:15.527Z,22.98
2022-10-10T15:05:42.564Z,10.68
2022-10-10T15:08:14.515Z,13.80
2022-10-10T15:10:42.873Z,12.90
2022-10-10T15:13:13.724Z,17.25
2022-10-10T15:15:41.315Z,17.40
2022-10-10T15:18:26.725Z,14.68
2022-10-10T15:20:55.284Z,14.23
2022-10-10T15:23:22.438Z,18.85
2022-10-10T15:25:49.258Z,14.32
2022-10-10T15:28:16.030Z,9.43
2022-10-10T15:30:46.385Z,12.55
2022-10-10T15:33:13.378Z,17.48
2022-10-10T15:36:03.917Z,12.02
2022-10-10T15:38:28.510Z,11.80
2022-10-10T15:41:09.925Z,17.95
2022-10-10T15:43:52.600Z,13.90
2022-10-10T15:46:27.110Z,12.07
2022-10-10T15:48:55.353Z,13.93
2022-10-10T15:51:22.107Z,18.67
2022-10-10T15:53:51.975Z,16.77
2022-10-10T15:56:18.876Z,12.35
2022-10-10T15:58:45.766Z,13.50
2022-10-10T16:01:18.538Z,14.38
2022-10-10T16:03:47.591Z,13.65
2022-10-10T16:06:15.961Z,12.00
2022-10-10T16:08:42.848Z,14.07
2022-10-10T16:11:14.841Z,15.80
2022-10-10T16:13:42.165Z,17.27
2022-10-10T16:16:11.256Z,13.82
2022-10-10T16:18:40.552Z,14.38
2022-10-10T16:21:13.544Z,10.52
2022-10-10T16:23:40.677Z,12.75
2022-10-10T16:26:14.802Z,19.25
2022-10-10T16:28:41.979Z,14.52
2022-10-10T16:31:10.744Z,11.10
2022-10-10T16:33:39.435Z,17.30
2022-10-10T16:36:15.511Z,13.23
2022-10-10T16:38:42.453Z,14.57
2022-10-10T16:41:23.825Z,11.35
2022-10-10T16:44:00.010Z,16.15
2022-10-10T16:46:27.793Z,11.65
2022-10-10T16:48:58.604Z,13.27
2022-10-10T16:51:28.361Z,17.88
2022-10-10T16:53:56.134Z,19.85
2022-10-10T16:56:23.018Z,12.00
2022-10-10T16:58:50.869Z,18.13
2022-10-10T17:01:23.219Z,14.40
2022-10-10T17:03:51.872Z,17.27
2022-10-10T17:06:21.704Z,16.60
2022-10-10T17:08:50.879Z,16.27
2022-10-10T17:11:20.448Z,17.02
2022-10-10T17:13:48.527Z,17.08
2022-10-10T17:17:06.970Z,12.00
2022-10-10T17:19:05.642Z,15.05
2022-10-10T17:21:32.748Z,17.73
2022-10-10T17:23:59.594Z,10.88
2022-10-10T17:26:28.057Z,11.45
2022-10-10T17:28:56.754Z,11.55
2022-10-10T17:31:24.106Z,14.88
2022-10-10T17:33:54.233Z,13.07
2022-10-10T17:36:24.231Z,18.52
2022-10-10T17:38:52.222Z,14.23
2022-10-10T17:41:20.591Z,14.48
2022-10-10T17:43:47.890Z,13.68
2022-10-10T17:46:35.177Z,16.27
2022-10-10T17:49:05.158Z,10.02
2022-10-10T17:51:32.168Z,23.75
2022-10-10T17:54:00.489Z,18.80
2022-10-10T17:56:28.046Z,11.80
2022-10-10T17:58:55.103Z,9.50
2022-10-10T18:01:22.303Z,13.57
2022-10-10T18:03:49.415Z,10.70
2022-10-10T18:06:20.474Z,15.82
2022-10-10T18:08:52.038Z,13.90
2022-10-10T18:11:24.430Z,13.60
2022-10-10T18:13:51.709Z,11.88
2022-10-10T18:16:21.983Z,10.45
2022-10-10T18:18:51.741Z,14.57
2022-10-10T18:21:21.682Z,9.93
2022-10-10T18:23:48.877Z,12.07
2022-10-10T18:26:19.394Z,9.98
2022-10-10T18:28:46.603Z,11.90
2022-10-10T18:31:16.733Z,15.23
2022-10-10T18:33:47.291Z,8.73
2022-10-10T18:36:17.856Z,16.25
2022-10-10T18:38:45.361Z,13.45
2022-10-10T18:41:15.581Z,11.65
2022-10-10T18:43:43.468Z,13.73
2022-10-10T18:46:13.682Z,14.25
2022-10-10T18:48:41.259Z,14.85
2022-10-10T18:51:22.189Z,15.38
2022-10-10T18:53:49.209Z,9.18
2022-10-10T18:56:21.112Z,13.23
2022-10-10T18:58:48.428Z,15.40
2022-10-10T19:01:17.546Z,12.30
2022-10-10T19:03:45.837Z,11.93
2022-10-10T19:06:13.610Z,14.10
2022-10-10T19:08:41.064Z,17.65
2022-10-10T19:11:17.017Z,15.15
2022-10-10T19:13:43.983Z,12.50
2022-10-10T19:16:10.794Z,11.13
2022-10-10T19:18:37.626Z,13.93
2022-10-10T19:21:05.638Z,11.55
2022-10-10T19:23:33.818Z,18.10
2022-10-10T19:26:06.355Z,12.43
2022-10-10T19:28:34.065Z,13.13
2022-10-10T19:31:09.770Z,16.58
2022-10-10T19:33:37.087Z,11.68
2022-10-10T19:36:06.753Z,11.98
2022-10-10T19:38:35.170Z,5.85
2022-10-10T19:41:05.239Z,21.92
2022-10-10T19:43:32.777Z,15.98
2022-10-10T19:46:04.234Z,11.88
2022-10-10T19:48:32.806Z,13.25
2022-10-10T19:51:02.711Z,11.73
2022-10-10T19:53:30.998Z,15.20
2022-10-10T19:56:04.633Z,8.88
2022-10-10T19:58:31.904Z,14.23
2022-10-10T20:00:58.782Z,13.52
2022-10-10T20:03:26.181Z,16.27
2022-10-10T20:05:53.224Z,16.27
2022-10-10T20:08:20.204Z,17.80
2022-10-10T20:10:51.430Z,18.50
2022-10-10T20:13:18.352Z,16.00
2022-10-10T20:15:48.876Z,15.90
2022-10-10T20:18:17.348Z,12.13
2022-10-10T20:20:47.855Z,10.60
2022-10-10T20:23:16.511Z,20.33
2022-10-10T20:25:44.744Z,8.60
2022-10-10T20:28:14.174Z,12.38
2022-10-10T20:30:45.318Z,17.00
2022-10-10T20:33:12.150Z,9.15
2022-10-10T20:35:38.994Z,16.27
2022-10-10T20:38:05.943Z,10.63
2022-10-10T20:40:32.710Z,13.88
2022-10-10T20:42:59.592Z,14.18
2022-10-10T20:45:26.412Z,10.07
2022-10-10T20:47:53.293Z,9.60
2022-10-10T20:50:20.157Z,13.40
2022-10-10T20:52:47.019Z,16.73
2022-10-10T20:55:13.835Z,11.18
2022-10-10T20:57:40.771Z,12.30
2022-10-10T21:00:08.238Z,13.40
2022-10-10T21:02:35.260Z,17.20
2022-10-10T21:05:02.120Z,7.53
2022-10-10T21:07:29.289Z,13.10
2022-10-10T21:09:56.129Z,9.38
2022-10-10T21:12:23.033Z,12.23
2022-10-10T21:14:49.786Z,12.52
2022-10-10T21:17:16.659Z,10.05
2022-10-10T21:19:43.669Z,10.98
2022-10-10T21:22:10.687Z,12.05
2022-10-10T21:24:37.482Z,14.68
2022-10-10T21:27:04.538Z,16.05
2022-10-10T21:29:31.332Z,18.65
2022-10-10T21:31:58.167Z,14.95
2022-10-10T21:34:25.042Z,11.60
2022-10-10T21:36:51.823Z,16.80
2022-10-10T21:39:18.737Z,14.65
2022-10-10T21:41:45.709Z,13.25
2022-10-10T21:44:14.372Z,17.42
2022-10-10T21:46:41.241Z,13.35
2022-10-10T21:49:11.481Z,12.95
2022-10-10T21:51:40.993Z,14.50
2022-10-10T21:54:09.020Z,14.77
2022-10-10T21:56:35.969Z,9.63
2022-10-10T21:59:03.423Z,15.55
2022-10-10T22:01:32.959Z,18.20
2022-10-10T22:04:01.156Z,9.68
2022-10-10T22:06:28.028Z,12.95
2022-10-10T22:08:57.447Z,13.10
2022-10-10T22:11:26.118Z,16.45
2022-10-10T22:13:53.237Z,8.55
2022-10-10T22:16:20.361Z,12.70
2022-10-10T22:18:47.732Z,11.07
2022-10-10T22:21:16.431Z,11.75
2022-10-10T22:23:44.952Z,13.13
2022-10-10T22:26:15.804Z,15.30
2022-10-10T22:28:43.332Z,11.60
2022-10-10T22:31:12.722Z,13.55
2022-10-10T22:33:39.949Z,12.45
2022-10-10T22:36:08.028Z,12.15
2022-10-10T22:38:43.726Z,9.60
2022-10-10T22:41:11.699Z,9.02
2022-10-10T22:43:38.559Z,10.65
2022-10-10T22:46:06.172Z,11.93
2022-10-10T22:48:33.354Z,9.60
2022-10-10T22:51:02.640Z,9.77
2022-10-10T22:53:29.920Z,13.80
2022-10-10T22:55:57.321Z,16.50
2022-10-10T22:58:25.410Z,11.02
2022-10-10T23:00:52.911Z,14.90
2022-10-10T23:03:20.495Z,18.23
2022-10-10T23:05:47.457Z,15.98
2022-10-10T23:08:14.538Z,14.13
2022-10-10T23:10:41.794Z,14.07
2022-10-10T23:13:08.648Z,12.38
2022-10-10T23:15:35.653Z,13.77
2022-10-10T23:18:02.813Z,13.70
2022-10-10T23:20:29.685Z,11.80
2022-10-10T23:22:56.665Z,15.38
2022-10-10T23:25:23.752Z,12.80
2022-10-10T23:27:51.038Z,10.88
2022-10-10T23:30:18.184Z,13.50
2022-10-10T23:32:45.208Z,18.20
2022-10-10T23:35:12.093Z,12.88
2022-10-10T23:37:39.356Z,11.63
2022-10-10T23:40:07.052Z,9.75
2022-10-10T23:42:34.211Z,9.95
2022-10-10T23:45:01.089Z,11.30
2022-10-10T23:47:27.878Z,12.15
2022-10-10T23:49:54.735Z,15.18
2022-10-10T23:52:21.512Z,10.15
2022-10-10T23:54:48.343Z,11.07
2022-10-10T23:57:15.165Z,15.45
2022-10-10T23:59:42.062Z,13.73
